createdAt,value
2019-04-22T00:00:51.410Z,73.87
2019-04-22T00:01:50.321Z,74.50
2019-04-22T00:02:51.652Z,74.77
2019-04-22T00:03:56.528Z,74.64
2019-04-22T00:05:01.101Z,74.56
2019-04-22T00:06:06.740Z,74.75
2019-04-22T00:07:09.851Z,75.49
2019-04-22T00:08:17.136Z,74.89
2019-04-22T00:09:21.741Z,75.69
2019-04-22T00:10:19.366Z,75.66
2019-04-22T00:11:18.108Z,76.14
2019-04-22T00:12:19.664Z,75.61
2019-04-22T00:13:23.861Z,76.05
2019-04-22T00:14:13.123Z,75.96
2019-04-22T00:15:11.590Z,76.37
2019-04-22T00:16:22.609Z,76.65
2019-04-22T00:17:26.233Z,76.08
2019-04-22T00:18:22.398Z,77.09
2019-04-22T00:19:22.671Z,77.05
2019-04-22T00:20:22.663Z,77.28
2019-04-22T00:21:26.323Z,77.40
2019-04-22T00:22:23.834Z,77.10
2019-04-22T00:23:18.713Z,77.27
2019-04-22T00:24:24.059Z,77.34
2019-04-22T00:25:32.940Z,77.03
2019-04-22T00:27:29.450Z,77.30
2019-04-22T00:28:30.806Z,76.60
2019-04-22T00:29:42.628Z,76.99
2019-04-22T00:30:21.961Z,76.72
2019-04-22T00:31:28.554Z,76.59
2019-04-22T00:32:27.258Z,76.32
2019-04-22T00:33:29.119Z,77.06
2019-04-22T00:34:25.463Z,76.81
2019-04-22T00:35:23.612Z,77.23
2019-04-22T00:36:27.515Z,77.07
2019-04-22T00:37:28.309Z,76.90
2019-04-22T00:38:32.846Z,76.50
2019-04-22T00:38:38.765Z,76.50
2019-04-22T00:40:39.304Z,76.72
2019-04-22T00:41:37.194Z,76.96
2019-04-22T00:42:29.466Z,76.82
2019-04-22T00:43:42.204Z,77.34
2019-04-22T00:44:41.527Z,77.13
2019-04-22T00:45:40.053Z,76.80
2019-04-22T00:46:38.089Z,77.17
2019-04-22T00:47:57.220Z,77.60
2019-04-22T00:48:43.124Z,77.71
2019-04-22T00:51:04.203Z,77.39
2019-04-22T00:51:44.514Z,78.13
2019-04-22T00:52:40.377Z,77.87
2019-04-22T00:53:41.561Z,78.27
2019-04-22T00:54:51.291Z,78.46
2019-04-22T00:55:38.767Z,78.18
2019-04-22T00:56:40.877Z,78.00
2019-04-22T00:57:42.624Z,78.63
2019-04-22T00:58:40.732Z,78.32
2019-04-22T00:59:48.532Z,78.03
2019-04-22T01:00:49.328Z,78.68
2019-04-22T01:01:47.114Z,78.61
2019-04-22T01:02:49.567Z,78.71
2019-04-22T01:03:50.421Z,78.99
2019-04-22T01:04:48.905Z,79.24
2019-04-22T01:05:46.935Z,79.72
2019-04-22T01:06:49.859Z,78.90
2019-04-22T01:07:43.163Z,79.06
2019-04-22T01:08:53.759Z,79.17
2019-04-22T01:09:55.357Z,79.47
2019-04-22T01:10:54.019Z,78.74
2019-04-22T01:11:44.919Z,79.18
2019-04-22T01:12:51.541Z,79.06
2019-04-22T01:13:52.140Z,79.57
2019-04-22T01:14:49.057Z,79.14
2019-04-22T01:15:47.794Z,79.23
2019-04-22T01:16:56.425Z,79.58
2019-04-22T01:17:52.959Z,78.93
2019-04-22T01:18:55.146Z,79.91
2019-04-22T01:19:58.312Z,79.47
2019-04-22T01:21:13.631Z,79.58
2019-04-22T01:21:52.804Z,79.77
2019-04-22T01:22:52.107Z,80.07
2019-04-22T01:23:52.131Z,79.74
2019-04-22T01:24:50.141Z,79.80
2019-04-22T01:25:55.277Z,80.80
2019-04-22T01:26:49.011Z,80.01
2019-04-22T01:27:48.877Z,80.35
2019-04-22T01:28:48.954Z,80.15
2019-04-22T01:29:46.355Z,80.31
2019-04-22T01:30:44.045Z,79.90
2019-04-22T01:31:37.146Z,79.75
2019-04-22T01:32:39.998Z,81.21
2019-04-22T01:33:40.774Z,80.96
2019-04-22T01:34:51.404Z,80.75
2019-04-22T01:35:56.873Z,80.93
2019-04-22T01:36:55.595Z,80.81
2019-04-22T01:37:54.698Z,80.71
2019-04-22T01:38:58.366Z,81.31
2019-04-22T01:40:06.077Z,81.08
2019-04-22T01:41:13.129Z,81.69
2019-04-22T01:43:07.307Z,81.58
2019-04-22T01:44:16.467Z,81.74
2019-04-22T01:45:12.429Z,81.63
2019-04-22T01:46:08.504Z,81.46
2019-04-22T01:47:08.070Z,81.90
2019-04-22T01:48:02.845Z,82.32
2019-04-22T01:49:13.058Z,81.92
2019-04-22T01:50:10.280Z,82.10
2019-04-22T01:51:04.838Z,82.33
2019-04-22T01:52:11.438Z,81.72
2019-04-22T01:53:10.624Z,82.71
2019-04-22T01:54:12.210Z,82.18
2019-04-22T01:55:22.910Z,82.07
2019-04-22T01:56:13.297Z,81.98
2019-04-22T01:57:11.641Z,81.85
2019-04-22T01:58:09.442Z,81.93
2019-04-22T01:59:05.164Z,82.42
2019-04-22T02:00:09.138Z,82.82
2019-04-22T02:01:13.550Z,82.80
2019-04-22T02:02:16.245Z,82.89
2019-04-22T02:03:17.796Z,83.05
2019-04-22T02:04:17.318Z,83.25
2019-04-22T02:05:17.713Z,83.21
2019-04-22T02:06:21.904Z,83.56
2019-04-22T02:08:25.595Z,83.23
2019-04-22T02:09:24.249Z,83.22
2019-04-22T02:10:30.118Z,83.39
2019-04-22T02:11:29.292Z,83.20
2019-04-22T02:12:21.373Z,83.37
2019-04-22T02:13:23.471Z,83.91
2019-04-22T02:14:28.824Z,84.14
2019-04-22T02:15:27.576Z,83.90
2019-04-22T02:16:25.632Z,83.74
2019-04-22T02:17:27.721Z,84.27
2019-04-22T02:18:39.419Z,84.05
2019-04-22T02:19:30.373Z,84.32
2019-04-22T02:20:29.715Z,84.63
2019-04-22T02:21:20.194Z,84.66
2019-04-22T02:22:46.401Z,84.68
2019-04-22T02:24:30.125Z,84.96
2019-04-22T02:25:32.771Z,84.40
2019-04-22T02:26:31.337Z,84.83
2019-04-22T02:27:32.522Z,84.37
2019-04-22T02:28:39.919Z,84.12
2019-04-22T02:29:31.319Z,85.13
2019-04-22T02:30:45.068Z,84.50
2019-04-22T02:31:43.246Z,84.29
2019-04-22T02:35:50.022Z,84.56
2019-04-22T02:37:45.986Z,85.08
2019-04-22T02:38:53.430Z,84.50
2019-04-22T02:39:34.484Z,84.73
2019-04-22T02:41:00.301Z,84.92
2019-04-22T02:42:38.898Z,85.41
2019-04-22T02:43:51.846Z,85.79
2019-04-22T02:44:48.540Z,85.39
2019-04-22T02:45:58.215Z,85.23
2019-04-22T02:47:02.693Z,84.49
2019-04-22T02:47:35.817Z,85.22
2019-04-22T02:48:53.773Z,85.62
2019-04-22T02:49:37.573Z,84.89
2019-04-22T02:50:46.179Z,85.71
2019-04-22T02:53:03.621Z,85.33
2019-04-22T02:54:51.046Z,85.31
2019-04-22T02:55:49.626Z,85.87
2019-04-22T02:59:52.604Z,86.32
2019-04-22T03:00:58.904Z,86.17
2019-04-22T03:04:43.827Z,85.50
2019-04-22T03:05:55.978Z,85.67
2019-04-22T03:09:55.497Z,85.71
2019-04-22T03:12:02.775Z,85.68
2019-04-22T03:12:51.965Z,85.86
2019-04-22T03:14:00.585Z,85.71
2019-04-22T03:16:07.877Z,85.55
2019-04-22T03:16:50.404Z,85.85
2019-04-22T03:20:02.640Z,86.18
2019-04-22T03:20:58.360Z,86.24
2019-04-22T03:23:05.823Z,86.45
2019-04-22T03:23:11.605Z,86.48
2019-04-22T03:24:05.969Z,86.71
2019-04-22T03:25:24.144Z,86.40
2019-04-22T03:26:23.223Z,86.21
2019-04-22T03:27:56.314Z,87.06
2019-04-22T03:28:56.882Z,86.35
2019-04-22T03:30:33.710Z,86.92
2019-04-22T03:33:11.919Z,87.42
2019-04-22T03:35:00.512Z,87.29
2019-04-22T03:35:36.987Z,87.37
2019-04-22T03:36:45.211Z,87.31
2019-04-22T03:37:21.466Z,87.39
2019-04-22T03:38:47.948Z,87.38
2019-04-22T03:39:33.486Z,88.26
2019-04-22T03:42:09.861Z,87.70
2019-04-22T03:43:13.627Z,87.79
2019-04-22T03:44:23.598Z,87.76
2019-04-22T03:45:26.249Z,87.82
2019-04-22T03:46:14.681Z,87.70
2019-04-22T03:48:28.700Z,87.51
2019-04-22T03:49:30.811Z,87.70
2019-04-22T03:50:22.028Z,87.87
2019-04-22T03:51:33.206Z,87.56
2019-04-22T03:54:34.578Z,87.79
2019-04-22T03:55:23.099Z,87.47
2019-04-22T03:56:57.333Z,87.82
2019-04-22T03:57:36.972Z,87.49
2019-04-22T03:58:16.251Z,87.88
2019-04-22T03:59:33.585Z,88.21
2019-04-22T04:00:41.650Z,88.00
2019-04-22T04:01:29.579Z,88.42
2019-04-22T04:02:28.872Z,88.12
2019-04-22T04:03:20.758Z,87.98
2019-04-22T04:05:43.120Z,88.35
2019-04-22T04:06:29.840Z,87.99
2019-04-22T04:08:35.730Z,88.35
2019-04-22T04:09:38.609Z,88.69
2019-04-22T04:11:38.536Z,88.33
2019-04-22T04:16:36.722Z,88.50
2019-04-22T04:17:29.123Z,88.16
2019-04-22T04:18:36.401Z,88.76
2019-04-22T04:21:37.947Z,88.44
2019-04-22T04:22:46.072Z,88.38
2019-04-22T04:23:37.863Z,88.33
2019-04-22T04:24:48.901Z,88.52
2019-04-22T04:26:48.237Z,88.21
2019-04-22T04:27:54.137Z,88.52
2019-04-22T04:29:45.198Z,88.74
2019-04-22T04:31:35.455Z,89.22
2019-04-22T04:33:54.624Z,88.70
2019-04-22T04:34:54.295Z,88.40
2019-04-22T04:35:43.356Z,88.80
2019-04-22T04:36:34.125Z,88.30
2019-04-22T04:37:48.407Z,88.70
2019-04-22T04:38:49.177Z,88.75
2019-04-22T04:39:43.389Z,87.85
2019-04-22T04:40:50.839Z,88.43
2019-04-22T04:41:42.066Z,88.35
2019-04-22T04:42:54.187Z,87.90
2019-04-22T04:43:47.443Z,87.49
2019-04-22T04:45:07.825Z,87.98
2019-04-22T04:46:02.848Z,87.88
2019-04-22T04:46:53.925Z,87.46
2019-04-22T04:48:55.707Z,86.65
2019-04-22T04:49:52.716Z,87.21
2019-04-22T04:50:53.332Z,87.09
2019-04-22T04:53:06.206Z,86.43
2019-04-22T04:53:52.746Z,86.57
2019-04-22T04:54:53.834Z,86.02
2019-04-22T04:56:02.793Z,86.00
2019-04-22T04:56:56.440Z,85.68
2019-04-22T05:01:05.675Z,86.61
2019-04-22T05:05:06.241Z,86.56
2019-04-22T05:05:49.008Z,86.79
2019-04-22T05:08:01.053Z,85.94
2019-04-22T05:09:10.879Z,85.50
2019-04-22T05:09:59.983Z,85.42
2019-04-22T05:11:01.089Z,85.70
2019-04-22T05:12:05.373Z,84.89
2019-04-22T05:12:56.675Z,85.27
2019-04-22T05:14:01.203Z,85.10
2019-04-22T05:14:54.997Z,84.76
2019-04-22T05:16:10.569Z,84.75
2019-04-22T05:16:54.711Z,84.64
2019-04-22T05:18:02.929Z,84.16
2019-04-22T05:18:59.180Z,83.75
2019-04-22T05:20:00.806Z,84.44
2019-04-22T05:21:14.682Z,83.79
2019-04-22T05:22:01.835Z,84.08
2019-04-22T05:22:51.562Z,83.75
2019-04-22T05:24:02.481Z,83.40
2019-04-22T05:24:59.294Z,84.66
2019-04-22T05:25:57.422Z,84.45
2019-04-22T05:26:57.500Z,83.39
2019-04-22T05:27:51.013Z,83.50
2019-04-22T05:28:57.887Z,82.04
2019-04-22T05:30:19.578Z,80.72
2019-04-22T05:30:57.326Z,79.51
2019-04-22T05:31:59.795Z,79.18
2019-04-22T05:32:55.373Z,78.70
2019-04-22T05:33:56.735Z,77.41
2019-04-22T05:34:52.807Z,75.98
2019-04-22T05:36:01.565Z,75.08
2019-04-22T05:37:01.274Z,75.17
2019-04-22T05:38:05.060Z,74.30
2019-04-22T05:39:01.853Z,73.59
2019-04-22T05:39:56.472Z,71.49
2019-04-22T05:40:56.147Z,70.65
2019-04-22T05:42:03.416Z,71.28
2019-04-22T05:43:01.867Z,70.12
2019-04-22T05:44:02.762Z,70.03
2019-04-22T05:45:03.284Z,68.94
2019-04-22T05:46:02.967Z,67.62
2019-04-22T05:47:02.933Z,68.35
2019-04-22T05:48:02.814Z,67.74
2019-04-22T05:49:07.757Z,66.82
2019-04-22T05:50:06.546Z,66.78
2019-04-22T05:52:31.668Z,65.42
2019-04-22T05:53:40.531Z,65.63
2019-04-22T05:54:40.119Z,64.42
2019-04-22T05:55:43.875Z,63.63
2019-04-22T05:56:47.704Z,63.39
2019-04-22T05:57:38.243Z,63.44
2019-04-22T05:58:45.302Z,63.37
2019-04-22T06:01:03.990Z,62.59
2019-04-22T06:01:59.253Z,61.71
2019-04-22T06:03:46.139Z,61.43
2019-04-22T06:04:44.956Z,62.36
2019-04-22T06:06:36.907Z,60.87
2019-04-22T06:07:38.550Z,60.43
2019-04-22T06:08:44.377Z,60.03
2019-04-22T06:09:38.898Z,59.58
2019-04-22T06:10:45.649Z,59.07
2019-04-22T06:11:54.432Z,59.85
2019-04-22T06:12:38.901Z,58.21
2019-04-22T06:13:41.898Z,56.70
2019-04-22T06:14:40.353Z,56.30
2019-04-22T06:15:38.931Z,54.63
2019-04-22T06:16:44.328Z,55.36
2019-04-22T06:17:47.313Z,56.86
2019-04-22T06:18:47.013Z,56.37
2019-04-22T06:19:44.945Z,55.67
2019-04-22T06:20:53.229Z,55.70
2019-04-22T06:21:50.138Z,55.42
2019-04-22T06:22:50.541Z,53.70
2019-04-22T06:24:06.303Z,53.80
2019-04-22T06:24:54.143Z,53.63
2019-04-22T06:28:35.203Z,52.05
2019-04-22T06:29:41.871Z,51.35
2019-04-22T06:30:29.118Z,50.39
2019-04-22T06:32:03.392Z,49.64
2019-04-22T06:33:34.784Z,49.27
2019-04-22T06:35:36.367Z,49.67
2019-04-22T06:36:43.573Z,49.53
2019-04-22T06:37:34.586Z,48.31
2019-04-22T06:39:35.697Z,48.43
2019-04-22T06:40:31.585Z,46.22
2019-04-22T06:41:34.679Z,48.08
2019-04-22T06:42:35.418Z,47.98
2019-04-22T06:43:38.077Z,47.12
2019-04-22T06:44:36.605Z,47.63
2019-04-22T06:45:35.372Z,47.78
2019-04-22T06:47:52.763Z,47.20
2019-04-22T06:48:35.765Z,46.78
2019-04-22T06:49:41.677Z,47.53
2019-04-22T06:51:40.222Z,46.48
2019-04-22T06:52:38.291Z,46.63
2019-04-22T06:53:40.537Z,45.56
2019-04-22T06:54:42.421Z,45.60
2019-04-22T06:55:41.447Z,44.47
2019-04-22T06:56:42.641Z,45.03
2019-04-22T06:57:43.490Z,44.38
2019-04-22T06:58:50.611Z,43.49
2019-04-22T06:59:42.679Z,43.18
2019-04-22T07:00:43.073Z,43.45
2019-04-22T07:03:56.953Z,42.79
2019-04-22T07:04:50.707Z,42.57
2019-04-22T07:05:47.478Z,42.44
2019-04-22T07:06:48.114Z,43.04
2019-04-22T07:07:52.158Z,43.03
2019-04-22T07:10:03.997Z,41.36
2019-04-22T07:10:50.876Z,41.23
2019-04-22T07:11:53.107Z,41.85
2019-04-22T07:12:52.036Z,42.48
2019-04-22T07:13:49.104Z,42.34
2019-04-22T07:14:43.210Z,41.63
2019-04-22T07:16:54.520Z,42.16
2019-04-22T07:17:58.303Z,41.69
2019-04-22T07:18:54.468Z,42.17
2019-04-22T07:19:47.378Z,41.35
2019-04-22T07:20:58.184Z,41.93
2019-04-22T07:21:57.688Z,41.57
2019-04-22T07:22:51.455Z,42.35
2019-04-22T07:25:10.536Z,42.39
2019-04-22T07:25:54.667Z,42.25
2019-04-22T07:26:58.604Z,41.86
2019-04-22T07:28:02.045Z,41.75
2019-04-22T07:28:55.083Z,41.19
2019-04-22T07:30:01.920Z,41.19
2019-04-22T07:30:57.734Z,40.76
2019-04-22T07:32:00.531Z,41.59
2019-04-22T07:33:15.117Z,40.76
2019-04-22T07:33:58.306Z,41.37
2019-04-22T07:35:01.422Z,41.38
2019-04-22T07:36:25.748Z,42.15
2019-04-22T07:37:09.255Z,41.58
2019-04-22T07:38:06.150Z,41.39
2019-04-22T07:39:01.563Z,40.77
2019-04-22T07:39:56.293Z,41.51
2019-04-22T07:40:59.468Z,41.61
2019-04-22T07:41:55.952Z,40.89
2019-04-22T07:43:04.328Z,40.71
2019-04-22T07:45:08.622Z,40.64
2019-04-22T07:46:12.012Z,40.76
2019-04-22T07:47:13.939Z,40.34
2019-04-22T07:48:22.602Z,40.28
2019-04-22T07:50:22.933Z,41.65
2019-04-22T07:51:07.524Z,40.69
2019-04-22T07:52:09.825Z,40.46
2019-04-22T07:53:05.264Z,40.82
2019-04-22T07:54:06.541Z,42.40
2019-04-22T07:55:07.096Z,41.68
2019-04-22T07:56:12.409Z,41.38
2019-04-22T07:57:15.364Z,41.56
2019-04-22T07:58:16.084Z,42.15
2019-04-22T07:59:13.662Z,41.64
2019-04-22T08:01:14.095Z,41.71
2019-04-22T08:02:10.205Z,40.71
2019-04-22T08:04:50.107Z,40.29
2019-04-22T08:06:38.511Z,39.86
2019-04-22T08:07:36.539Z,39.85
2019-04-22T08:12:38.975Z,39.42
2019-04-22T08:13:38.257Z,38.97
2019-04-22T08:14:42.361Z,39.46
2019-04-22T08:15:41.781Z,39.71
2019-04-22T08:16:41.367Z,40.10
2019-04-22T08:18:56.835Z,41.69
2019-04-22T08:19:45.606Z,41.94
2019-04-22T08:20:42.535Z,40.39
2019-04-22T08:21:38.479Z,40.50
2019-04-22T08:22:49.015Z,38.99
2019-04-22T08:23:43.254Z,39.66
2019-04-22T08:24:42.015Z,39.79
2019-04-22T08:25:41.530Z,40.03
2019-04-22T08:26:41.376Z,40.67
2019-04-22T08:27:47.397Z,40.47
2019-04-22T08:28:49.091Z,40.50
2019-04-22T08:29:52.427Z,41.49
2019-04-22T08:31:49.154Z,40.40
2019-04-22T08:32:45.960Z,40.55
2019-04-22T08:33:52.457Z,40.84
2019-04-22T08:34:42.190Z,40.34
2019-04-22T08:36:00.813Z,40.17
2019-04-22T08:37:22.826Z,39.41
2019-04-22T08:37:57.608Z,39.17
2019-04-22T08:39:01.949Z,39.36
2019-04-22T08:39:40.602Z,39.80
2019-04-22T08:40:50.138Z,40.77
2019-04-22T08:41:40.173Z,41.38
2019-04-22T08:43:02.185Z,41.14
2019-04-22T08:44:00.919Z,39.85
2019-04-22T08:45:08.119Z,39.99
2019-04-22T08:45:51.081Z,40.59
2019-04-22T08:46:53.607Z,40.80
2019-04-22T08:47:47.958Z,40.96
2019-04-22T08:49:57.107Z,40.20
2019-04-22T08:50:56.389Z,39.88
2019-04-22T08:51:58.910Z,40.84
2019-04-22T08:52:57.595Z,40.10
2019-04-22T08:54:00.289Z,40.70
2019-04-22T08:54:57.437Z,41.77
2019-04-22T08:56:10.891Z,41.00
2019-04-22T08:56:50.920Z,40.58
2019-04-22T08:59:04.732Z,40.53
2019-04-22T09:00:00.585Z,40.44
2019-04-22T09:00:57.095Z,41.34
2019-04-22T09:01:59.345Z,40.33
2019-04-22T09:03:00.171Z,40.05
2019-04-22T09:03:58.078Z,40.63
2019-04-22T09:04:55.973Z,41.29
2019-04-22T09:07:59.385Z,40.29
2019-04-22T09:09:03.413Z,40.12
2019-04-22T09:10:08.679Z,40.49
2019-04-22T09:11:08.177Z,40.61
2019-04-22T09:12:00.229Z,40.14
2019-04-22T09:13:13.930Z,40.28
2019-04-22T09:14:02.967Z,41.04
2019-04-22T09:14:55.994Z,40.54
2019-04-22T09:16:02.273Z,41.81
2019-04-22T09:17:07.463Z,41.42
2019-04-22T09:18:08.383Z,40.81
2019-04-22T09:19:10.658Z,40.31
2019-04-22T09:20:11.284Z,40.59
2019-04-22T09:21:13.064Z,41.32
2019-04-22T09:22:05.301Z,40.63
2019-04-22T09:23:09.232Z,39.78
2019-04-22T09:24:10.287Z,40.41
2019-04-22T09:25:03.762Z,39.79
2019-04-22T09:26:09.172Z,40.14
2019-04-22T09:27:12.992Z,39.08
2019-04-22T09:28:10.441Z,40.03
2019-04-22T09:29:17.993Z,39.99
2019-04-22T09:30:04.746Z,40.37
2019-04-22T09:31:11.625Z,40.06
2019-04-22T09:32:11.609Z,39.90
2019-04-22T09:33:15.310Z,40.59
2019-04-22T09:34:06.458Z,40.06
2019-04-22T09:35:10.246Z,40.33
2019-04-22T09:36:16.787Z,40.33
2019-04-22T09:38:26.811Z,39.28
2019-04-22T09:39:19.462Z,39.01
2019-04-22T09:41:14.136Z,40.19
2019-04-22T09:42:11.981Z,40.20
2019-04-22T09:43:16.915Z,40.06
2019-04-22T09:44:09.322Z,39.42
2019-04-22T09:45:11.636Z,39.30
2019-04-22T09:46:18.313Z,39.34
2019-04-22T09:47:19.224Z,39.44
2019-04-22T09:48:29.711Z,38.81
2019-04-22T09:49:23.222Z,38.77
2019-04-22T09:50:27.601Z,38.19
2019-04-22T09:51:19.029Z,38.03
2019-04-22T09:52:14.919Z,38.43
2019-04-22T09:53:22.238Z,39.17
2019-04-22T09:54:22.211Z,38.78
2019-04-22T09:55:17.976Z,39.27
2019-04-22T09:56:28.046Z,39.44
2019-04-22T09:57:21.223Z,39.28
2019-04-22T09:59:22.690Z,37.99
2019-04-22T10:00:25.481Z,38.82
2019-04-22T10:01:38.615Z,38.51
2019-04-22T10:02:26.727Z,37.33
2019-04-22T10:03:29.015Z,37.23
2019-04-22T10:04:18.213Z,36.87
2019-04-22T10:05:29.397Z,37.17
2019-04-22T10:07:27.479Z,37.01
2019-04-22T10:08:38.616Z,37.27
2019-04-22T10:09:40.629Z,37.34
2019-04-22T10:10:21.369Z,37.86
2019-04-22T10:12:32.180Z,37.98
2019-04-22T10:13:34.701Z,37.20
2019-04-22T10:14:33.186Z,37.58
2019-04-22T10:15:30.429Z,37.72
2019-04-22T10:16:35.763Z,38.17
2019-04-22T10:17:25.145Z,37.49
2019-04-22T10:18:32.421Z,37.40
2019-04-22T10:19:29.997Z,37.21
2019-04-22T10:20:36.263Z,38.11
2019-04-22T10:21:35.242Z,37.20
2019-04-22T10:22:32.556Z,37.93
2019-04-22T10:23:34.087Z,38.59
2019-04-22T10:24:26.453Z,38.02
2019-04-22T10:25:31.307Z,38.35
2019-04-22T10:26:36.535Z,38.02
2019-04-22T10:27:32.476Z,39.00
2019-04-22T10:28:40.940Z,38.34
2019-04-22T10:29:38.603Z,37.88
2019-04-22T10:30:39.235Z,38.06
2019-04-22T10:31:37.162Z,38.57
2019-04-22T10:32:33.508Z,38.18
2019-04-22T10:33:30.932Z,37.95
2019-04-22T10:34:23.846Z,38.62
2019-04-22T10:35:17.237Z,38.60
2019-04-22T10:36:13.018Z,38.10
2019-04-22T10:37:17.072Z,38.14
2019-04-22T10:38:12.663Z,37.17
2019-04-22T10:38:22.074Z,37.49
2019-04-22T10:39:32.850Z,37.91
2019-04-22T10:40:22.000Z,38.35
2019-04-22T10:41:23.811Z,37.68
2019-04-22T10:42:25.108Z,37.35
2019-04-22T10:43:25.225Z,38.75
2019-04-22T10:44:23.934Z,38.62
2019-04-22T10:45:26.067Z,38.48
2019-04-22T10:46:24.578Z,37.22
2019-04-22T10:47:25.955Z,37.33
2019-04-22T10:48:26.255Z,37.37
2019-04-22T10:49:26.449Z,36.99
2019-04-22T10:50:25.569Z,37.67
2019-04-22T10:51:28.687Z,38.11
2019-04-22T10:52:27.656Z,37.28
2019-04-22T10:53:27.424Z,35.80
2019-04-22T10:54:29.814Z,35.58
2019-04-22T10:55:29.547Z,36.25
2019-04-22T10:56:28.107Z,36.27
2019-04-22T10:57:30.068Z,36.14
2019-04-22T10:58:31.014Z,36.70
2019-04-22T10:59:32.351Z,36.61
2019-04-22T11:00:31.843Z,36.13
2019-04-22T11:01:33.913Z,36.23
2019-04-22T11:02:32.844Z,36.12
2019-04-22T11:03:35.230Z,35.42
2019-04-22T11:04:34.432Z,36.06
2019-04-22T11:05:34.315Z,34.96
2019-04-22T11:06:42.929Z,34.78
2019-04-22T11:07:42.390Z,35.51
2019-04-22T11:08:44.506Z,34.96
2019-04-22T11:09:47.635Z,35.30
2019-04-22T11:10:52.182Z,34.51
2019-04-22T11:11:48.007Z,33.11
2019-04-22T11:12:39.363Z,34.20
2019-04-22T11:13:39.851Z,33.35
2019-04-22T11:14:41.832Z,33.42
2019-04-22T11:15:40.495Z,32.83
2019-04-22T11:16:39.788Z,32.20
2019-04-22T11:17:41.829Z,32.98
2019-04-22T11:18:41.262Z,33.37
2019-04-22T11:19:41.530Z,34.04
2019-04-22T11:20:41.885Z,33.43
2019-04-22T11:21:41.366Z,33.54
2019-04-22T11:22:42.684Z,33.06
2019-04-22T11:23:42.675Z,35.03
2019-04-22T11:24:42.609Z,34.47
2019-04-22T11:25:44.012Z,33.19
2019-04-22T11:26:43.210Z,33.84
2019-04-22T11:27:44.362Z,34.40
2019-04-22T11:28:45.497Z,33.30
2019-04-22T11:29:45.697Z,32.75
2019-04-22T11:30:46.089Z,31.48
2019-04-22T11:32:26.472Z,32.95
2019-04-22T11:33:26.641Z,32.78
2019-04-22T11:34:26.926Z,32.15
2019-04-22T11:35:27.806Z,32.36
2019-04-22T11:36:30.437Z,33.01
2019-04-22T11:37:28.418Z,33.05
2019-04-22T11:38:29.100Z,32.08
2019-04-22T11:39:34.500Z,31.73
2019-04-22T11:40:37.818Z,32.79
2019-04-22T11:41:31.134Z,33.09
2019-04-22T11:42:30.462Z,32.87
2019-04-22T11:43:32.336Z,32.03
2019-04-22T11:44:31.115Z,32.59
2019-04-22T11:45:33.237Z,32.21
2019-04-22T11:46:31.553Z,32.24
2019-04-22T11:47:33.073Z,31.69
2019-04-22T11:48:33.872Z,33.13
2019-04-22T11:49:34.100Z,33.04
2019-04-22T11:50:33.566Z,32.40
2019-04-22T11:51:33.855Z,31.08
2019-04-22T11:52:35.068Z,31.73
2019-04-22T11:53:34.594Z,32.71
2019-04-22T11:54:35.104Z,33.11
2019-04-22T11:55:36.962Z,33.65
2019-04-22T11:56:36.941Z,32.70
2019-04-22T11:57:37.168Z,32.57
2019-04-22T11:58:37.220Z,32.63
2019-04-22T11:59:36.544Z,31.83
2019-04-22T12:00:38.861Z,32.80
2019-04-22T12:01:37.201Z,33.74
2019-04-22T12:02:38.704Z,34.07
2019-04-22T12:03:38.041Z,34.34
2019-04-22T12:04:38.151Z,34.07
2019-04-22T12:05:38.016Z,32.79
2019-04-22T12:06:40.104Z,32.85
2019-04-22T12:07:40.423Z,33.70
2019-04-22T12:08:39.751Z,33.97
2019-04-22T12:09:39.925Z,34.15
2019-04-22T12:10:49.464Z,34.67
2019-04-22T12:11:40.808Z,34.24
2019-04-22T12:12:44.381Z,34.12
2019-04-22T12:13:42.223Z,34.01
2019-04-22T12:14:42.464Z,33.91
2019-04-22T12:15:42.753Z,34.47
2019-04-22T12:16:43.460Z,33.58
2019-04-22T12:17:42.626Z,34.01
2019-04-22T12:18:43.237Z,33.95
2019-04-22T12:19:46.278Z,32.78
2019-04-22T12:20:45.389Z,34.24
2019-04-22T12:21:45.118Z,33.57
2019-04-22T12:22:47.298Z,34.25
2019-04-22T12:23:45.302Z,33.92
2019-04-22T12:24:46.103Z,35.22
2019-04-22T12:25:53.559Z,34.07
2019-04-22T12:26:46.419Z,34.48
2019-04-22T12:27:47.247Z,34.22
2019-04-22T12:28:48.860Z,35.16
2019-04-22T12:29:49.036Z,34.56
2019-04-22T12:30:48.984Z,34.80
2019-04-22T12:31:51.346Z,35.37
2019-04-22T12:32:50.531Z,34.90
2019-04-22T12:33:49.656Z,35.08
2019-04-22T12:34:51.284Z,35.04
2019-04-22T12:35:50.588Z,34.84
2019-04-22T12:36:51.065Z,35.06
2019-04-22T12:37:56.879Z,35.76
2019-04-22T12:38:51.432Z,34.99
2019-04-22T12:39:53.098Z,36.07
2019-04-22T12:40:58.513Z,35.29
2019-04-22T12:41:52.143Z,35.12
2019-04-22T12:42:53.471Z,35.64
2019-04-22T12:43:53.663Z,35.08
2019-04-22T12:44:55.988Z,34.84
2019-04-22T12:45:54.572Z,34.62
2019-04-22T12:46:56.457Z,35.06
2019-04-22T12:47:56.023Z,35.25
2019-04-22T12:48:56.236Z,34.46
2019-04-22T12:50:06.809Z,34.95
2019-04-22T12:50:58.439Z,33.99
2019-04-22T12:51:57.123Z,34.05
2019-04-22T12:53:02.399Z,34.96
2019-04-22T12:53:57.282Z,34.13
2019-04-22T12:54:57.923Z,34.92
2019-04-22T12:55:59.886Z,34.58
2019-04-22T12:56:59.669Z,35.16
2019-04-22T12:58:02.441Z,34.61
2019-04-22T12:58:59.600Z,35.09
2019-04-22T13:00:01.923Z,35.00
2019-04-22T13:01:01.052Z,34.07
2019-04-22T13:02:00.754Z,34.17
2019-04-22T13:03:01.133Z,33.98
2019-04-22T13:04:06.918Z,33.94
2019-04-22T13:05:01.157Z,34.46
2019-04-22T13:06:03.649Z,34.13
2019-04-22T13:07:01.879Z,34.20
2019-04-22T13:08:02.022Z,34.96
2019-04-22T13:09:02.494Z,34.33
2019-04-22T13:10:05.970Z,34.30
2019-04-22T13:11:10.377Z,33.97
2019-04-22T13:12:06.915Z,34.81
2019-04-22T13:13:07.086Z,34.42
2019-04-22T13:14:07.083Z,34.23
2019-04-22T13:15:07.944Z,34.26
2019-04-22T13:16:06.988Z,34.27
2019-04-22T13:17:08.046Z,33.88
2019-04-22T13:18:17.322Z,34.23
2019-04-22T13:19:11.695Z,33.93
2019-04-22T13:20:08.824Z,34.94
2019-04-22T13:21:08.772Z,35.33
2019-04-22T13:22:09.285Z,34.71
2019-04-22T13:23:09.775Z,35.17
2019-04-22T13:24:13.126Z,34.82
2019-04-22T13:25:12.440Z,35.22
2019-04-22T13:26:12.764Z,35.11
2019-04-22T13:27:12.984Z,34.60
2019-04-22T13:28:13.347Z,34.49
2019-04-22T13:29:13.097Z,34.60
2019-04-22T13:30:16.320Z,33.91
2019-04-22T13:31:16.051Z,33.91
2019-04-22T13:32:16.529Z,34.58
2019-04-22T13:33:16.787Z,33.83
2019-04-22T13:34:25.554Z,34.22
2019-04-22T13:34:32.424Z,34.20
2019-04-22T13:35:26.163Z,34.28
2019-04-22T13:36:27.666Z,34.29
2019-04-22T13:37:25.344Z,34.90
2019-04-22T13:38:25.071Z,33.80
2019-04-22T13:39:25.252Z,34.24
2019-04-22T13:40:26.469Z,34.30
2019-04-22T13:41:33.903Z,35.56
2019-04-22T13:42:27.209Z,34.71
2019-04-22T13:43:27.060Z,33.88
2019-04-22T13:44:28.060Z,33.68
2019-04-22T13:45:27.684Z,33.57
2019-04-22T13:46:30.955Z,33.44
2019-04-22T13:47:42.333Z,34.24
2019-04-22T13:48:46.354Z,34.00
2019-04-22T13:50:08.131Z,33.94
2019-04-22T13:51:05.659Z,34.23
2019-04-22T13:52:00.942Z,33.16
2019-04-22T13:54:30.145Z,33.06
2019-04-22T13:54:53.265Z,34.13
2019-04-22T13:55:56.527Z,34.07
2019-04-22T13:56:52.105Z,33.80
2019-04-22T13:57:53.945Z,34.21
2019-04-22T13:58:48.492Z,34.56
2019-04-22T13:59:42.356Z,33.96
2019-04-22T14:00:36.396Z,34.82
2019-04-22T14:01:36.654Z,33.28
2019-04-22T14:02:36.890Z,32.90
2019-04-22T14:03:37.880Z,32.82
2019-04-22T14:04:37.025Z,33.82
2019-04-22T14:05:37.241Z,33.79
2019-04-22T14:06:38.817Z,33.02
2019-04-22T14:07:38.879Z,33.14
2019-04-22T14:08:38.542Z,33.41
2019-04-22T14:09:40.532Z,33.41
2019-04-22T14:10:40.717Z,33.77
2019-04-22T14:11:49.418Z,32.41
2019-04-22T14:12:39.570Z,32.96
2019-04-22T14:13:41.937Z,33.43
2019-04-22T14:14:42.830Z,33.71
2019-04-22T14:15:43.881Z,33.39
2019-04-22T14:16:43.179Z,33.58
2019-04-22T14:17:45.382Z,33.62
2019-04-22T14:18:45.956Z,33.63
2019-04-22T14:19:46.515Z,33.04
2019-04-22T14:20:45.148Z,33.86
2019-04-22T14:21:47.495Z,32.67
2019-04-22T14:22:46.397Z,33.65
2019-04-22T14:23:46.762Z,32.74
2019-04-22T14:24:46.861Z,33.28
2019-04-22T14:25:46.557Z,33.53
2019-04-22T14:26:58.861Z,33.45
2019-04-22T14:27:54.831Z,33.65
2019-04-22T14:28:49.940Z,33.28
2019-04-22T14:29:49.409Z,32.39
2019-04-22T14:30:50.508Z,32.46
2019-04-22T14:32:04.225Z,32.79